createdAt,value
2017-07-04T00:00:00.811Z,21.20
2017-07-04T00:02:28.339Z,21.30
2017-07-04T00:04:55.868Z,21.20
2017-07-04T00:07:23.745Z,21.30
2017-07-04T00:09:51.256Z,21.30
2017-07-04T00:12:18.760Z,21.30
2017-07-04T00:14:46.729Z,21.30
2017-07-04T00:17:14.228Z,21.30
2017-07-04T00:19:41.733Z,21.30
2017-07-04T00:22:09.626Z,21.30
2017-07-04T00:24:37.163Z,21.30
2017-07-04T00:27:04.681Z,21.30
2017-07-04T00:29:32.498Z,21.30
2017-07-04T00:32:00.012Z,21.30
2017-07-04T00:34:27.521Z,21.30
2017-07-04T00:36:55.390Z,21.30
2017-07-04T00:39:22.907Z,21.30
2017-07-04T00:41:50.439Z,21.30
2017-07-04T00:44:18.247Z,21.30
2017-07-04T00:46:45.769Z,21.20
2017-07-04T00:49:13.284Z,21.20
2017-07-04T00:51:41.260Z,21.20
2017-07-04T00:54:08.777Z,21.20
2017-07-04T00:56:36.293Z,21.20
2017-07-04T00:59:04.174Z,21.20
2017-07-04T01:01:31.687Z,21.20
2017-07-04T01:03:59.195Z,21.30
2017-07-04T01:06:27.165Z,21.20
2017-07-04T01:08:54.683Z,21.20
2017-07-04T01:11:22.186Z,21.30
2017-07-04T01:13:49.983Z,21.30
2017-07-04T01:16:18.305Z,21.30
2017-07-04T01:18:45.831Z,21.30
2017-07-04T01:21:14.484Z,21.30
2017-07-04T01:23:42.013Z,21.30
2017-07-04T01:26:09.580Z,21.30
2017-07-04T01:28:37.496Z,21.30
2017-07-04T01:31:05.018Z,21.40
2017-07-04T01:33:32.571Z,21.40
2017-07-04T01:36:00.442Z,21.40
2017-07-04T01:38:27.932Z,21.40
2017-07-04T01:40:55.470Z,21.40
2017-07-04T01:43:23.291Z,21.40
2017-07-04T01:45:51.602Z,21.30
2017-07-04T01:48:19.111Z,21.30
2017-07-04T01:50:47.033Z,21.30
2017-07-04T01:53:14.546Z,21.20
2017-07-04T01:55:42.809Z,21.10
2017-07-04T01:58:11.554Z,21.10
2017-07-04T02:00:39.073Z,21.10
2017-07-04T02:03:07.372Z,21.00
2017-07-04T02:05:35.197Z,21.00
2017-07-04T02:08:02.702Z,21.00
2017-07-04T02:10:30.209Z,21.00
2017-07-04T02:12:58.121Z,21.00
2017-07-04T02:15:25.651Z,20.90
2017-07-04T02:17:53.170Z,20.90
2017-07-04T02:20:21.106Z,20.90
2017-07-04T02:22:48.626Z,20.80
2017-07-04T02:25:16.134Z,20.80
2017-07-04T02:27:44.129Z,20.70
2017-07-04T02:30:11.629Z,20.70
2017-07-04T02:32:39.910Z,20.70
2017-07-04T02:35:07.719Z,20.60
2017-07-04T02:37:35.237Z,20.60
2017-07-04T02:40:02.748Z,20.60
2017-07-04T02:42:30.738Z,20.60
2017-07-04T02:44:58.286Z,20.50
2017-07-04T02:47:25.867Z,20.50
2017-07-04T02:49:53.664Z,20.50
2017-07-04T02:52:21.965Z,20.60
2017-07-04T02:54:49.480Z,20.50
2017-07-04T02:57:17.325Z,20.60
2017-07-04T02:59:44.841Z,20.50
2017-07-04T03:02:12.354Z,20.60
2017-07-04T03:04:40.398Z,20.50
2017-07-04T03:07:07.937Z,20.50
2017-07-04T03:09:35.480Z,20.40
2017-07-04T03:12:03.381Z,20.40
2017-07-04T03:14:30.906Z,20.30
2017-07-04T03:16:58.438Z,20.40
2017-07-04T03:19:26.294Z,20.30
2017-07-04T03:21:53.802Z,20.30
2017-07-04T03:24:21.292Z,20.20
2017-07-04T03:26:49.173Z,20.20
2017-07-04T03:29:16.692Z,20.20
2017-07-04T03:31:44.198Z,20.10
2017-07-04T03:34:12.051Z,20.00
2017-07-04T03:36:39.559Z,20.00
2017-07-04T03:39:07.046Z,20.00
2017-07-04T03:41:34.939Z,20.00
2017-07-04T03:44:02.451Z,20.00
2017-07-04T03:46:30.714Z,19.90
2017-07-04T03:48:58.631Z,19.80
2017-07-04T03:51:26.139Z,19.90
2017-07-04T03:53:54.451Z,19.80
2017-07-04T03:56:22.273Z,19.80
2017-07-04T03:58:49.795Z,19.70
2017-07-04T04:01:17.316Z,19.50
2017-07-04T04:03:45.141Z,19.40
2017-07-04T04:06:12.640Z,19.30
2017-07-04T04:08:40.125Z,19.10
2017-07-04T04:11:08.117Z,19.00
2017-07-04T04:13:35.630Z,19.00
2017-07-04T04:16:03.892Z,19.00
2017-07-04T04:18:31.721Z,19.00
2017-07-04T04:20:59.214Z,19.10
2017-07-04T04:23:26.733Z,19.10
2017-07-04T04:25:54.595Z,19.10
2017-07-04T04:28:22.108Z,19.10
2017-07-04T04:30:49.638Z,19.10
2017-07-04T04:33:17.591Z,19.20
2017-07-04T04:35:45.107Z,19.20
2017-07-04T04:38:12.595Z,19.20
2017-07-04T04:40:40.838Z,19.20
2017-07-04T04:43:08.339Z,19.20
2017-07-04T04:45:35.849Z,19.10
2017-07-04T04:48:03.703Z,19.00
2017-07-04T04:50:31.209Z,19.00
2017-07-04T04:52:58.710Z,19.00
2017-07-04T04:55:26.577Z,19.00
2017-07-04T04:57:54.106Z,19.00
2017-07-04T05:00:21.687Z,19.00
2017-07-04T05:02:49.639Z,19.00
2017-07-04T05:05:17.169Z,19.10
2017-07-04T05:07:45.460Z,19.10
2017-07-04T05:10:14.066Z,19.20
2017-07-04T05:12:41.579Z,19.10
2017-07-04T05:15:09.096Z,19.20
2017-07-04T05:17:36.918Z,19.20
2017-07-04T05:20:05.205Z,19.20
2017-07-04T05:22:33.509Z,19.20
2017-07-04T05:25:01.389Z,19.20
2017-07-04T05:27:28.899Z,19.30
2017-07-04T05:29:56.414Z,19.30
2017-07-04T05:32:24.198Z,19.30
2017-07-04T05:34:51.714Z,19.40
2017-07-04T05:37:19.234Z,19.40
2017-07-04T05:39:47.044Z,19.40
2017-07-04T05:42:14.543Z,19.50
2017-07-04T05:44:42.042Z,19.50
2017-07-04T05:47:10.044Z,19.50
2017-07-04T05:49:37.566Z,19.50
2017-07-04T05:52:05.069Z,19.50
2017-07-04T05:54:32.948Z,19.50
2017-07-04T05:57:00.514Z,19.60
2017-07-04T05:59:28.038Z,19.60
2017-07-04T06:01:56.018Z,19.60
2017-07-04T06:04:23.513Z,19.60
2017-07-04T06:06:51.030Z,19.60
2017-07-04T06:09:18.895Z,19.70
2017-07-04T06:11:46.409Z,19.70
2017-07-04T06:14:13.930Z,19.80
2017-07-04T06:16:41.750Z,19.80
2017-07-04T06:19:09.268Z,19.80
2017-07-04T06:21:36.757Z,19.90
2017-07-04T06:24:04.568Z,19.90
2017-07-04T06:26:32.066Z,19.90
2017-07-04T06:28:59.581Z,20.10
2017-07-04T06:31:27.410Z,20.20
2017-07-04T06:33:54.925Z,20.30
2017-07-04T06:36:22.443Z,20.50
2017-07-04T06:38:50.253Z,20.60
2017-07-04T06:41:17.759Z,20.60
2017-07-04T06:43:45.274Z,20.70
2017-07-04T06:46:13.132Z,20.70
2017-07-04T06:48:40.627Z,20.80
2017-07-04T06:51:08.134Z,20.90
2017-07-04T06:53:36.023Z,21.00
2017-07-04T06:56:03.524Z,21.20
2017-07-04T06:58:31.028Z,21.20
2017-07-04T07:00:58.840Z,21.30
2017-07-04T07:03:26.360Z,21.30
2017-07-04T07:05:53.917Z,21.30
2017-07-04T07:08:21.779Z,21.30
2017-07-04T07:10:49.285Z,21.40
2017-07-04T07:13:16.832Z,21.50
2017-07-04T07:15:44.657Z,21.60
2017-07-04T07:18:12.169Z,21.60
2017-07-04T07:20:39.673Z,21.70
2017-07-04T07:23:07.495Z,21.70
2017-07-04T07:25:35.015Z,21.60
2017-07-04T07:28:02.529Z,21.70
2017-07-04T07:30:30.344Z,21.80
2017-07-04T07:32:57.854Z,21.90
2017-07-04T07:35:25.380Z,22.00
2017-07-04T07:37:53.343Z,22.10
2017-07-04T07:40:21.003Z,22.10
2017-07-04T07:42:49.347Z,22.20
2017-07-04T07:45:17.241Z,22.30
2017-07-04T07:47:44.754Z,22.40
2017-07-04T07:50:12.271Z,22.50
2017-07-04T07:52:40.238Z,22.50
2017-07-04T07:55:07.739Z,22.40
2017-07-04T07:57:35.267Z,22.30
2017-07-04T08:00:03.127Z,22.20
2017-07-04T08:02:30.662Z,22.20
2017-07-04T08:04:58.198Z,22.30
2017-07-04T08:07:26.830Z,22.50
2017-07-04T08:09:54.339Z,22.50
2017-07-04T08:12:21.833Z,22.50
2017-07-04T08:14:49.727Z,22.50
2017-07-04T08:17:17.242Z,22.40
2017-07-04T08:19:44.754Z,22.40
2017-07-04T08:22:12.593Z,22.30
2017-07-04T08:24:40.110Z,22.30
2017-07-04T08:27:07.631Z,22.30
2017-07-04T08:29:36.300Z,22.60
2017-07-04T08:32:03.797Z,22.60
2017-07-04T08:34:31.301Z,22.80
2017-07-04T08:36:59.304Z,23.00
2017-07-04T08:39:26.862Z,23.20
2017-07-04T08:41:54.372Z,23.30
2017-07-04T08:44:22.290Z,23.40
2017-07-04T08:46:49.799Z,23.50
2017-07-04T08:49:17.328Z,23.50
2017-07-04T08:51:45.165Z,23.40
2017-07-04T08:54:12.694Z,23.30
2017-07-04T08:56:40.229Z,23.40
2017-07-04T08:59:08.069Z,23.50
2017-07-04T09:01:35.582Z,23.70
2017-07-04T09:04:03.098Z,23.80
2017-07-04T09:06:30.938Z,23.80
2017-07-04T09:08:58.440Z,23.80
2017-07-04T09:11:25.978Z,23.70
2017-07-04T09:13:53.922Z,23.70
2017-07-04T09:16:21.442Z,23.80
2017-07-04T09:18:48.982Z,23.90
2017-07-04T09:21:16.839Z,23.90
2017-07-04T09:23:44.353Z,24.00
2017-07-04T09:26:11.883Z,23.90
2017-07-04T09:28:39.817Z,24.00
2017-07-04T09:31:07.343Z,24.10
2017-07-04T09:33:34.863Z,24.20
2017-07-04T09:36:02.700Z,24.20
2017-07-04T09:38:30.238Z,24.10
2017-07-04T09:40:57.767Z,24.10
2017-07-04T09:43:25.794Z,24.20
2017-07-04T09:45:53.316Z,24.30
2017-07-04T09:48:20.844Z,24.40
2017-07-04T09:50:48.709Z,24.30
2017-07-04T09:53:16.214Z,24.30
2017-07-04T09:55:43.734Z,24.30
2017-07-04T09:58:11.542Z,24.40
2017-07-04T10:00:39.081Z,24.50
2017-07-04T10:03:06.598Z,24.60
2017-07-04T10:05:34.444Z,24.60
2017-07-04T10:08:01.977Z,24.70
2017-07-04T10:10:29.507Z,24.70
2017-07-04T10:12:57.333Z,24.80
2017-07-04T10:15:24.839Z,24.90
2017-07-04T10:17:52.361Z,24.90
2017-07-04T10:20:20.163Z,25.00
2017-07-04T10:22:47.659Z,25.00
2017-07-04T10:25:15.182Z,25.00
2017-07-04T10:27:42.980Z,24.90
2017-07-04T10:30:10.512Z,24.90
2017-07-04T10:32:38.009Z,25.00
2017-07-04T10:35:05.949Z,25.00
2017-07-04T10:37:33.459Z,25.00
2017-07-04T10:40:00.988Z,25.10
2017-07-04T10:42:28.800Z,25.20
2017-07-04T10:44:56.299Z,25.20
2017-07-04T10:47:23.815Z,25.20
2017-07-04T10:49:51.752Z,25.20
2017-07-04T10:52:19.279Z,25.20
2017-07-04T10:54:46.820Z,25.30
2017-07-04T10:57:14.671Z,25.40
2017-07-04T10:59:42.194Z,25.50
2017-07-04T11:02:09.714Z,25.60
2017-07-04T11:04:37.552Z,25.70
2017-07-04T11:07:05.095Z,25.70
2017-07-04T11:09:32.603Z,25.50
2017-07-04T11:12:00.419Z,25.40
2017-07-04T11:14:27.927Z,25.40
2017-07-04T11:16:55.466Z,25.20
2017-07-04T11:19:23.387Z,25.10
2017-07-04T11:21:50.894Z,25.00
2017-07-04T11:24:18.453Z,25.00
2017-07-04T11:26:46.300Z,25.00
2017-07-04T11:29:13.838Z,25.00
2017-07-04T11:31:41.365Z,25.10
2017-07-04T11:34:09.286Z,25.30
2017-07-04T11:36:36.814Z,25.60
2017-07-04T11:39:04.324Z,26.10
2017-07-04T11:41:32.137Z,26.60
2017-07-04T11:43:59.654Z,27.20
2017-07-04T11:46:27.179Z,27.70
2017-07-04T11:48:54.980Z,28.30
2017-07-04T11:51:22.493Z,28.70
2017-07-04T11:53:50.799Z,28.70
2017-07-04T11:56:18.649Z,28.70
2017-07-04T11:58:46.169Z,28.40
2017-07-04T12:01:13.703Z,28.40
2017-07-04T12:03:41.556Z,28.50
2017-07-04T12:06:09.058Z,28.60
2017-07-04T12:08:36.591Z,29.00
2017-07-04T12:11:04.400Z,29.30
2017-07-04T12:13:32.691Z,30.20
2017-07-04T12:16:00.216Z,30.10
2017-07-04T12:18:28.037Z,30.60
2017-07-04T12:20:55.546Z,30.30
2017-07-04T12:23:23.061Z,29.90
2017-07-04T12:25:50.928Z,29.40
2017-07-04T12:28:18.454Z,28.80
2017-07-04T12:30:46.768Z,29.10
2017-07-04T12:33:14.617Z,29.10
2017-07-04T12:35:42.183Z,30.20
2017-07-04T12:38:09.701Z,30.90
2017-07-04T12:40:37.508Z,31.70
2017-07-04T12:43:05.023Z,32.60
2017-07-04T12:45:32.538Z,33.30
2017-07-04T12:48:00.345Z,34.00
2017-07-04T12:50:27.914Z,34.30
2017-07-04T12:52:55.474Z,34.40
2017-07-04T12:55:23.285Z,34.60
2017-07-04T12:57:50.817Z,35.00
2017-07-04T13:00:18.344Z,35.30
2017-07-04T13:02:46.148Z,35.50
2017-07-04T13:05:13.685Z,36.00
2017-07-04T13:07:41.201Z,36.30
2017-07-04T13:10:09.070Z,36.60
2017-07-04T13:12:36.564Z,36.60
2017-07-04T13:15:04.100Z,36.70
2017-07-04T13:17:31.968Z,36.90
2017-07-04T13:19:59.502Z,37.10
2017-07-04T13:22:27.044Z,37.20
2017-07-04T13:24:55.652Z,37.80
2017-07-04T13:27:23.179Z,37.80
2017-07-04T13:29:50.694Z,37.60
2017-07-04T13:32:18.519Z,37.50
2017-07-04T13:34:46.048Z,37.30
2017-07-04T13:37:13.563Z,37.10
2017-07-04T13:39:41.490Z,37.10
2017-07-04T13:42:09.055Z,37.10
2017-07-04T13:44:37.320Z,36.20
2017-07-04T13:47:05.912Z,36.30
2017-07-04T13:49:33.435Z,36.30
2017-07-04T13:52:00.960Z,36.70
2017-07-04T13:54:28.806Z,37.00
2017-07-04T13:56:56.320Z,37.30
2017-07-04T13:59:23.850Z,37.60
2017-07-04T14:01:51.632Z,37.40
2017-07-04T14:04:19.142Z,36.70
2017-07-04T14:06:46.685Z,36.20
2017-07-04T14:09:14.533Z,36.10
2017-07-04T14:11:42.096Z,36.10
2017-07-04T14:14:09.604Z,36.10
2017-07-04T14:16:38.222Z,35.80
2017-07-04T14:19:05.739Z,35.80
2017-07-04T14:21:33.257Z,35.80
2017-07-04T14:24:01.226Z,36.00
2017-07-04T14:26:28.797Z,36.20
2017-07-04T14:28:56.286Z,36.40
2017-07-04T14:31:24.222Z,36.80
2017-07-04T14:33:51.777Z,37.00
2017-07-04T14:36:19.292Z,36.90
2017-07-04T14:38:47.345Z,37.00
2017-07-04T14:41:14.865Z,37.10
2017-07-04T14:43:42.412Z,37.30
2017-07-04T14:46:10.279Z,37.20
2017-07-04T14:48:37.900Z,37.10
2017-07-04T14:51:05.459Z,37.00
2017-07-04T14:53:33.478Z,36.70
2017-07-04T14:56:00.979Z,36.30
2017-07-04T14:58:28.504Z,35.70
2017-07-04T15:00:56.404Z,35.00
2017-07-04T15:03:23.940Z,34.20
2017-07-04T15:05:51.469Z,33.80
2017-07-04T15:08:19.366Z,33.60
2017-07-04T15:10:46.882Z,33.50
2017-07-04T15:13:14.409Z,33.70
2017-07-04T15:15:42.359Z,33.60
2017-07-04T15:18:09.866Z,33.10
2017-07-04T15:20:37.380Z,32.50
2017-07-04T15:23:05.202Z,32.40
2017-07-04T15:25:32.736Z,32.60
2017-07-04T15:28:00.266Z,33.00
2017-07-04T15:30:28.115Z,33.60
2017-07-04T15:32:55.647Z,34.20
2017-07-04T15:35:23.169Z,34.70
2017-07-04T15:37:51.083Z,35.10
2017-07-04T15:40:18.587Z,35.20
2017-07-04T15:42:46.208Z,35.10
2017-07-04T15:45:14.108Z,34.90
2017-07-04T15:47:41.630Z,34.50
2017-07-04T15:50:09.154Z,34.10
2017-07-04T15:52:36.959Z,33.50
2017-07-04T15:55:04.477Z,32.90
2017-07-04T15:57:32.003Z,32.20
2017-07-04T15:59:59.876Z,31.60
2017-07-04T16:02:27.405Z,31.30
2017-07-04T16:04:54.918Z,31.20
2017-07-04T16:07:22.723Z,31.00
2017-07-04T16:09:50.248Z,30.70
2017-07-04T16:12:17.770Z,30.30
2017-07-04T16:14:45.583Z,29.80
2017-07-04T16:17:13.109Z,29.30
2017-07-04T16:19:40.625Z,29.00
2017-07-04T16:22:08.449Z,28.90
2017-07-04T16:24:36.001Z,29.00
2017-07-04T16:27:03.547Z,29.50
2017-07-04T16:29:31.498Z,30.20
2017-07-04T16:31:59.032Z,30.90
2017-07-04T16:34:27.318Z,31.10
2017-07-04T16:36:55.212Z,31.10
2017-07-04T16:39:22.745Z,31.00
2017-07-04T16:41:50.255Z,31.00
2017-07-04T16:44:18.094Z,31.30
2017-07-04T16:46:45.628Z,31.50
2017-07-04T16:49:13.149Z,31.50
2017-07-04T16:51:40.988Z,31.60
2017-07-04T16:54:08.525Z,32.00
2017-07-04T16:56:36.090Z,32.50
2017-07-04T16:59:03.979Z,32.70
2017-07-04T17:01:31.493Z,32.50
2017-07-04T17:03:59.024Z,32.00
2017-07-04T17:06:26.878Z,31.50
2017-07-04T17:08:54.411Z,31.20
2017-07-04T17:11:21.935Z,31.20
2017-07-04T17:13:49.745Z,31.50
2017-07-04T17:16:17.251Z,31.70
2017-07-04T17:18:44.761Z,32.00
2017-07-04T17:21:12.635Z,32.20
2017-07-04T17:23:40.174Z,32.20
2017-07-04T17:26:07.698Z,32.00
2017-07-04T17:28:35.641Z,31.60
2017-07-04T17:31:03.156Z,31.30
2017-07-04T17:33:30.692Z,30.90
2017-07-04T17:35:58.537Z,30.40
2017-07-04T17:38:26.091Z,30.00
2017-07-04T17:40:53.645Z,29.70
2017-07-04T17:43:21.455Z,29.50
2017-07-04T17:45:48.984Z,29.40
2017-07-04T17:48:16.519Z,29.10
2017-07-04T17:50:44.363Z,28.90
2017-07-04T17:53:11.885Z,28.70
2017-07-04T17:55:39.404Z,28.60
2017-07-04T17:58:07.254Z,28.70
2017-07-04T18:00:34.781Z,29.00
2017-07-04T18:03:02.291Z,29.20
2017-07-04T18:05:30.162Z,29.50
2017-07-04T18:07:57.677Z,29.50
2017-07-04T18:10:25.212Z,29.20
2017-07-04T18:12:53.147Z,29.00
2017-07-04T18:15:20.654Z,28.70
2017-07-04T18:17:48.217Z,28.40
2017-07-04T18:20:16.056Z,28.10
2017-07-04T18:22:43.566Z,27.60
2017-07-04T18:25:11.087Z,27.40
2017-07-04T18:27:39.034Z,27.20
2017-07-04T18:30:06.567Z,27.00
2017-07-04T18:32:34.088Z,26.90
2017-07-04T18:35:01.908Z,26.80
2017-07-04T18:37:29.449Z,26.70
2017-07-04T18:39:56.992Z,26.70
2017-07-04T18:42:25.589Z,26.50
2017-07-04T18:44:53.118Z,26.50
2017-07-04T18:47:20.652Z,26.60
2017-07-04T18:49:48.474Z,26.10
2017-07-04T18:52:16.000Z,26.00
2017-07-04T18:54:43.521Z,25.80
2017-07-04T18:57:11.393Z,25.70
2017-07-04T18:59:38.921Z,25.70
2017-07-04T19:02:06.473Z,25.60
2017-07-04T19:04:34.376Z,25.50
2017-07-04T19:07:01.882Z,25.40
2017-07-04T19:09:29.413Z,25.30
2017-07-04T19:11:57.216Z,25.20
2017-07-04T19:14:24.723Z,25.10
2017-07-04T19:16:52.238Z,25.00
2017-07-04T19:19:20.062Z,24.90
2017-07-04T19:21:47.584Z,24.80
2017-07-04T19:24:15.110Z,24.70
2017-07-04T19:26:43.037Z,24.60
2017-07-04T19:29:10.579Z,24.50
2017-07-04T19:31:38.120Z,24.30
2017-07-04T19:34:06.053Z,24.20
2017-07-04T19:36:33.580Z,24.10
2017-07-04T19:39:01.100Z,24.00
2017-07-04T19:41:29.755Z,23.80
2017-07-04T19:43:57.309Z,23.80
2017-07-04T19:46:24.860Z,23.80
2017-07-04T19:48:52.767Z,23.70
2017-07-04T19:51:21.066Z,23.60
2017-07-04T19:53:49.364Z,23.60
2017-07-04T19:56:17.182Z,23.60
2017-07-04T19:58:44.718Z,23.50
2017-07-04T20:01:12.251Z,23.50
2017-07-04T20:03:40.132Z,23.30
2017-07-04T20:06:07.673Z,23.30
2017-07-04T20:08:35.247Z,23.20
2017-07-04T20:11:03.113Z,23.10
2017-07-04T20:13:30.679Z,23.00
2017-07-04T20:15:58.204Z,22.90
2017-07-04T20:18:26.846Z,22.70
2017-07-04T20:20:54.388Z,22.70
2017-07-04T20:23:21.914Z,22.70
2017-07-04T20:25:49.803Z,22.60
2017-07-04T20:28:17.319Z,22.60
2017-07-04T20:30:44.865Z,22.60
2017-07-04T20:33:12.689Z,22.50
2017-07-04T20:35:40.223Z,22.50
2017-07-04T20:38:08.563Z,22.40
2017-07-04T20:40:36.420Z,22.40
2017-07-04T20:43:03.973Z,22.40
2017-07-04T20:45:31.495Z,22.30
2017-07-04T20:47:59.444Z,22.20
2017-07-04T20:50:27.743Z,22.10
2017-07-04T20:52:56.026Z,22.10
2017-07-04T20:55:23.858Z,22.10
2017-07-04T20:57:51.404Z,22.10
2017-07-04T21:00:18.922Z,22.10
2017-07-04T21:02:46.768Z,22.10
2017-07-04T21:05:15.043Z,22.00
2017-07-04T21:07:42.588Z,22.00
2017-07-04T21:10:10.526Z,22.00
2017-07-04T21:12:38.048Z,22.00
2017-07-04T21:15:05.567Z,21.90
2017-07-04T21:17:33.380Z,21.90
2017-07-04T21:20:00.906Z,21.80
2017-07-04T21:22:28.426Z,21.80
2017-07-04T21:24:56.279Z,21.70
2017-07-04T21:27:23.800Z,21.70
2017-07-04T21:29:51.303Z,21.70
2017-07-04T21:32:19.182Z,21.70
2017-07-04T21:34:46.699Z,21.60
2017-07-04T21:37:14.219Z,21.60
2017-07-04T21:39:42.039Z,21.60
2017-07-04T21:42:09.931Z,21.60
2017-07-04T21:44:37.464Z,21.50
2017-07-04T21:47:05.285Z,21.50
2017-07-04T21:49:32.818Z,21.40
2017-07-04T21:52:00.324Z,21.40
2017-07-04T21:54:28.975Z,21.30
2017-07-04T21:56:56.527Z,21.30
2017-07-04T21:59:24.022Z,21.30
2017-07-04T22:01:51.831Z,21.20
2017-07-04T22:04:19.361Z,21.20
2017-07-04T22:06:47.652Z,21.10
2017-07-04T22:09:16.253Z,21.10
2017-07-04T22:11:43.785Z,21.10
2017-07-04T22:14:12.070Z,21.10
2017-07-04T22:16:40.635Z,21.10
2017-07-04T22:19:08.146Z,21.10
2017-07-04T22:21:35.671Z,21.20
2017-07-04T22:24:04.284Z,21.20
2017-07-04T22:26:31.807Z,21.20
2017-07-04T22:29:00.096Z,21.20
2017-07-04T22:31:27.903Z,21.20
2017-07-04T22:33:55.394Z,21.20
2017-07-04T22:36:22.889Z,21.20
2017-07-04T22:38:50.799Z,21.20
2017-07-04T22:41:18.304Z,21.20
2017-07-04T22:43:46.601Z,21.30
2017-07-04T22:46:14.487Z,21.20
2017-07-04T22:48:42.009Z,21.20
2017-07-04T22:51:10.305Z,21.20
2017-07-04T22:53:38.191Z,21.20
2017-07-04T22:56:05.723Z,21.20
2017-07-04T22:58:33.998Z,21.20
2017-07-04T23:01:01.888Z,21.20
2017-07-04T23:03:29.409Z,21.20
2017-07-04T23:05:57.696Z,21.00
2017-07-04T23:08:26.343Z,21.00
2017-07-04T23:10:53.846Z,20.90
2017-07-04T23:13:22.118Z,20.80
2017-07-04T23:15:50.733Z,20.70
2017-07-04T23:18:18.271Z,20.70
2017-07-04T23:20:45.847Z,20.60
2017-07-04T23:23:13.744Z,20.50
2017-07-04T23:25:41.262Z,20.50
2017-07-04T23:28:08.775Z,20.40
2017-07-04T23:30:36.619Z,20.40
2017-07-04T23:33:04.122Z,20.30
2017-07-04T23:35:31.652Z,20.20
2017-07-04T23:37:59.596Z,20.10
2017-07-04T23:40:27.111Z,20.00
2017-07-04T23:42:54.610Z,20.00
2017-07-04T23:45:22.498Z,19.90
2017-07-04T23:47:50.043Z,19.80
2017-07-04T23:50:17.564Z,19.70
2017-07-04T23:52:46.177Z,19.60
2017-07-04T23:55:13.683Z,19.60
2017-07-04T23:57:41.219Z,19.50
